Halls Creek, Australia
Current Conditions -  °F | °C
As of 10:00 AM on Tuesday 21 Oct 2014 (Local Time) from YARG Reporting Station
Clear Clear  
Wind Chill: 95°   Ceiling: Unl
Heat Index: 95°   Visibility: 6mi
Dew Point: 52°   Wind: 12mph
Humidity: 23%   Direction: 30°NNE
Pressure: 29.97"   Gusts: NA
Location:  18.24°S, 127.66°E
Report Text: YARG 210200Z AUTO 03010KT 9999 // NCD 35/11 Q1015
Loading
Personal Weather Stations






























Interactive Weather Map
Tropical Storm Tracking
New forecast layout! Learn more

10-Day Weather Forecast

Advertisements
Track Severe Weather on mobile